Time;durP1;ratioP1;P1;durP2;ratioP2;P2;SDS_P1;SDS_P2;PMS_P1;PMS_P2;Temp;Humidity;BMP_temperature;BMP_pressure;BME280_temperature;BME280_humidity;BME280_pressure;Samples;Min_cycle;Max_cycle;Signal;HPM_P1;HPM_P2
2023/08/17 00:00:19;;;;;;;4.13;1.70;;;;;;;19.51;87.73;101763.47;4957569;28;20419;-85
2023/08/17 00:02:44;;;;;;;4.33;2.00;;;;;;;19.50;88.23;101765.38;4974730;28;20124;-85
2023/08/17 00:05:10;;;;;;;4.63;1.80;;;;;;;19.49;87.91;101771.97;4957442;28;20027;-86
2023/08/17 00:07:36;;;;;;;4.90;2.03;;;;;;;19.50;88.16;101767.31;4957478;28;20494;-86
2023/08/17 00:10:02;;;;;;;4.87;2.00;;;;;;;19.46;88.29;101753.22;4974453;28;20031;-86
2023/08/17 00:12:28;;;;;;;4.22;1.77;;;;;;;19.45;88.34;101754.31;4942105;28;20459;-85
2023/08/17 00:14:53;;;;;;;4.13;1.70;;;;;;;19.44;88.05;101753.47;4957710;28;20039;-86
2023/08/17 00:17:19;;;;;;;6.90;1.70;;;;;;;19.45;88.63;101763.38;4957137;28;20043;-86
2023/08/17 00:19:45;;;;;;;4.43;1.70;;;;;;;19.42;88.50;101755.63;4956959;28;20058;-86
2023/08/17 00:22:11;;;;;;;5.97;1.90;;;;;;;19.39;89.02;101750.63;4974246;28;20483;-85
2023/08/17 00:24:36;;;;;;;6.88;2.30;;;;;;;19.36;88.97;101753.91;4957384;28;20475;-86
2023/08/17 00:27:03;;;;;;;5.40;1.90;;;;;;;19.34;89.31;101757.97;4974529;28;20027;-86
2023/08/17 00:29:28;;;;;;;6.18;2.45;;;;;;;19.28;89.13;101749.66;4974390;28;20185;-86
2023/08/17 00:31:54;;;;;;;6.03;1.73;;;;;;;19.29;89.21;101753.25;4975514;28;20440;-86
2023/08/17 00:34:19;;;;;;;3.97;2.00;;;;;;;19.22;89.39;101749.81;4941235;28;20071;-86
2023/08/17 00:36:45;;;;;;;3.90;2.03;;;;;;;19.17;90.09;101753.34;4974764;28;20030;-86
2023/08/17 00:39:10;;;;;;;4.43;2.00;;;;;;;19.13;89.84;101749.41;4941942;28;20045;-86
2023/08/17 00:41:36;;;;;;;4.33;1.80;;;;;;;19.04;90.28;101756.44;4974440;28;20078;-86
2023/08/17 00:44:02;;;;;;;4.37;2.03;;;;;;;18.99;90.65;101754.44;4974452;28;20054;-85
2023/08/17 00:46:27;;;;;;;6.43;1.95;;;;;;;18.91;91.56;101755.69;4974320;28;20502;-85
2023/08/17 00:48:58;;;;;;;7.30;2.33;;;;;;;18.87;91.40;101756.44;4974345;28;20031;-86
2023/08/17 00:51:24;;;;;;;4.43;2.00;;;;;;;18.83;91.32;101760.72;4956782;28;20097;-86
2023/08/17 00:53:59;;;;;;;4.75;1.98;;;;;;;18.81;91.21;101762.88;4974259;28;20047;-85
2023/08/17 00:56:26;;;;;;;3.88;2.00;;;;;;;18.78;91.64;101766.97;4957220;28;20077;-85
2023/08/17 00:58:51;;;;;;;6.20;2.30;;;;;;;18.80;91.42;101773.03;4958941;28;20476;-85
2023/08/17 01:01:17;;;;;;;4.00;2.17;;;;;;;18.84;91.75;101765.97;4977677;28;20054;-85
2023/08/17 01:03:43;;;;;;;7.72;2.00;;;;;;;18.85;91.46;101764.06;4943960;28;20023;-85
2023/08/17 01:06:09;;;;;;;4.00;1.77;;;;;;;18.87;90.90;101768.25;4960262;28;20069;-85
2023/08/17 01:08:36;;;;;;;4.43;1.88;;;;;;;18.85;90.80;101775.91;4977582;28;20027;-85
2023/08/17 01:11:19;;;;;;;7.07;2.05;;;;;;;18.90;90.44;101766.94;4977784;28;20042;-85
2023/08/17 01:13:48;;;;;;;2.72;1.70;;;;;;;18.90;90.64;101767.75;4960363;28;20031;-85
2023/08/17 01:16:21;;;;;;;4.00;1.50;;;;;;;18.89;90.53;101759.75;4960086;28;20034;-85
2023/08/17 01:18:47;;;;;;;4.88;2.10;;;;;;;18.86;90.50;101763.00;4977423;28;20030;-85
2023/08/17 01:21:18;;;;;;;3.88;1.65;;;;;;;18.82;91.08;101765.38;4959884;28;20041;-85
2023/08/17 01:23:48;;;;;;;6.18;2.10;;;;;;;18.76;91.07;101764.47;4959824;28;20035;-85
2023/08/17 01:26:15;;;;;;;5.40;1.90;;;;;;;18.75;91.29;101757.31;4960013;28;20027;-85
2023/08/17 01:28:46;;;;;;;7.57;1.80;;;;;;;18.72;91.38;101765.19;4960102;28;20042;-85
2023/08/17 01:31:20;;;;;;;3.63;1.70;;;;;;;18.66;92.03;101760.69;4977361;28;20523;-85
2023/08/17 01:34:03;;;;;;;4.93;1.80;;;;;;;18.61;91.59;101755.13;4959794;28;20034;-85
2023/08/17 01:36:28;;;;;;;3.53;1.80;;;;;;;18.57;92.73;101752.00;4977246;28;20042;-85
2023/08/17 01:38:56;;;;;;;8.60;2.10;;;;;;;18.47;93.08;101757.31;4959320;28;20035;-85
2023/08/17 01:41:23;;;;;;;4.47;2.15;;;;;;;18.44;93.73;101752.31;4959913;28;20034;-85
2023/08/17 01:43:50;;;;;;;4.10;1.80;;;;;;;18.37;93.90;101752.50;4943704;28;20216;-85
2023/08/17 01:46:17;;;;;;;3.50;2.10;;;;;;;18.33;94.59;101743.88;4959644;28;20035;-86
2023/08/17 01:48:43;;;;;;;6.38;1.98;;;;;;;18.30;95.21;101740.81;4943543;28;20482;-85
2023/08/17 01:51:10;;;;;;;4.35;1.90;;;;;;;18.29;95.31;101737.25;4976302;28;20035;-86
2023/08/17 01:53:35;;;;;;;4.18;1.88;;;;;;;18.29;95.61;101744.63;4959362;28;20042;-84
2023/08/17 01:56:01;;;;;;;5.23;2.07;;;;;;;18.24;95.76;101737.94;4943369;28;20031;-85
2023/08/17 01:58:26;;;;;;;6.97;2.10;;;;;;;18.28;95.47;101738.31;4959383;28;20471;-85
2023/08/17 02:00:54;;;;;;;2.87;1.90;;;;;;;18.31;95.74;101735.06;4959337;28;20030;-85
2023/08/17 02:03:19;;;;;;;4.47;2.20;;;;;;;18.33;96.16;101738.41;4976217;28;20391;-85
2023/08/17 02:05:46;;;;;;;5.70;2.17;;;;;;;18.33;96.03;101734.81;4959379;28;20047;-85
2023/08/17 02:08:11;;;;;;;6.35;2.30;;;;;;;18.36;96.14;101750.81;4959336;28;20035;-85
2023/08/17 02:10:37;;;;;;;5.27;2.13;;;;;;;18.35;96.30;101744.50;4959095;28;20058;-85
2023/08/17 02:13:02;;;;;;;3.87;1.90;;;;;;;18.36;96.81;101753.56;4959231;28;20033;-85
2023/08/17 02:15:28;;;;;;;6.18;2.22;;;;;;;18.36;96.22;101750.81;4959035;28;20039;-85
2023/08/17 02:17:53;;;;;;;6.57;2.23;;;;;;;18.37;95.97;101758.81;4942664;28;20488;-85
2023/08/17 02:20:18;;;;;;;4.90;2.23;;;;;;;18.35;96.55;101754.63;4975706;28;20162;-85
2023/08/17 02:22:44;;;;;;;4.47;2.20;;;;;;;18.35;96.20;101763.72;4976121;28;20030;-85
2023/08/17 02:25:09;;;;;;;5.43;2.53;;;;;;;18.32;95.74;101755.13;4976125;28;20027;-85
2023/08/17 02:27:35;;;;;;;4.63;2.23;;;;;;;18.30;96.00;101749.06;4942839;28;20041;-85
2023/08/17 02:30:00;;;;;;;5.40;2.33;;;;;;;18.31;95.61;101756.22;4958296;28;20054;-85
2023/08/17 02:32:26;;;;;;;6.43;2.23;;;;;;;18.28;95.61;101757.53;4959072;28;20035;-85
2023/08/17 02:34:51;;;;;;;6.18;2.30;;;;;;;18.28;95.12;101748.44;4958437;28;20050;-85
2023/08/17 02:37:16;;;;;;;4.03;1.83;;;;;;;18.31;95.14;101742.50;4942664;28;20125;-85
2023/08/17 02:39:42;;;;;;;6.63;2.30;;;;;;;18.29;95.14;101745.47;4958534;28;20393;-85
2023/08/17 02:42:07;;;;;;;7.37;2.40;;;;;;;18.29;95.03;101750.97;4975774;28;20034;-85
2023/08/17 02:44:33;;;;;;;3.40;2.05;;;;;;;18.31;95.05;101751.56;4942645;28;20090;-85
2023/08/17 02:46:58;;;;;;;6.30;2.10;;;;;;;18.35;95.32;101751.88;4926627;28;20527;-85
2023/08/17 02:49:24;;;;;;;5.00;2.00;;;;;;;18.35;95.12;101743.63;4957625;28;20058;-85
2023/08/17 02:51:49;;;;;;;4.33;2.20;;;;;;;18.40;94.68;101739.09;4942885;28;20057;-85
2023/08/17 02:54:14;;;;;;;4.60;2.17;;;;;;;18.42;94.43;101749.81;4958134;28;20372;-85
2023/08/17 02:56:40;;;;;;;9.32;2.40;;;;;;;18.41;94.64;101746.25;4942052;28;20062;-85
2023/08/17 02:59:05;;;;;;;5.27;2.10;;;;;;;18.44;94.18;101746.84;4958304;28;20442;-85
2023/08/17 03:01:32;;;;;;;5.10;1.97;;;;;;;18.43;94.13;101737.75;4975516;28;20109;-85
2023/08/17 03:03:57;;;;;;;5.40;2.00;;;;;;;18.44;93.78;101742.19;4958301;28;20039;-85
2023/08/17 03:06:22;;;;;;;4.17;1.80;;;;;;;18.45;93.50;101732.84;4958063;28;20030;-85
2023/08/17 03:08:48;;;;;;;3.83;1.73;;;;;;;18.45;92.93;101735.59;4958009;28;20039;-85
2023/08/17 03:11:13;;;;;;;5.63;2.03;;;;;;;18.44;92.43;101733.94;4958198;28;20041;-85
2023/08/17 03:13:39;;;;;;;3.70;1.90;;;;;;;18.47;92.18;101740.84;4958445;28;20290;-85
2023/08/17 03:16:04;;;;;;;3.47;1.70;;;;;;;18.47;91.93;101743.59;4975288;28;20460;-85
2023/08/17 03:18:30;;;;;;;5.93;1.97;;;;;;;18.45;91.43;101735.59;4941597;28;20118;-85
2023/08/17 03:20:55;;;;;;;3.72;1.42;;;;;;;18.46;91.26;101723.53;4957415;28;20049;-85
2023/08/17 03:23:20;;;;;;;5.10;1.73;;;;;;;18.45;91.17;101732.84;4957870;28;20035;-85
2023/08/17 03:25:46;;;;;;;6.40;1.90;;;;;;;18.46;90.91;101730.94;4957790;28;20031;-85
2023/08/17 03:28:11;;;;;;;8.77;2.17;;;;;;;18.44;90.88;101736.69;4957626;28;20097;-85
2023/08/17 03:30:37;;;;;;;4.90;1.88;;;;;;;18.46;90.82;101736.44;4941454;28;20051;-85
2023/08/17 03:33:02;;;;;;;6.93;1.60;;;;;;;18.43;91.70;101740.50;4975080;28;20039;-84
2023/08/17 03:35:28;;;;;;;6.63;1.97;;;;;;;18.40;91.78;101738.25;4957677;28;20488;-85
2023/08/17 03:37:53;;;;;;;4.40;1.93;;;;;;;18.40;91.92;101732.75;4941818;28;20062;-85
2023/08/17 03:40:19;;;;;;;6.78;1.88;;;;;;;18.37;92.05;101734.09;4942280;28;20387;-85
2023/08/17 03:42:44;;;;;;;7.50;2.00;;;;;;;18.37;91.82;101736.00;4974898;28;20467;-85
2023/08/17 03:45:09;;;;;;;4.00;1.80;;;;;;;18.31;91.68;101729.59;4941659;28;20046;-84
2023/08/17 03:47:35;;;;;;;5.67;1.90;;;;;;;18.28;92.60;101723.72;4974860;28;20030;-85
2023/08/17 03:50:00;;;;;;;3.77;1.83;;;;;;;18.29;92.69;101720.75;4974199;28;20039;-85
2023/08/17 03:52:26;;;;;;;4.43;1.90;;;;;;;18.29;92.76;101733.66;4957397;28;20782;-85
2023/08/17 03:54:51;;;;;;;5.77;2.33;;;;;;;18.24;92.61;101729.72;4957464;28;20026;-85
2023/08/17 03:57:17;;;;;;;4.10;2.27;;;;;;;18.24;93.20;101735.22;4974848;28;20463;-85
2023/08/17 03:59:42;;;;;;;6.97;2.15;;;;;;;18.26;93.73;101743.19;4958009;28;20070;-85
2023/08/17 04:02:07;;;;;;;3.10;1.90;;;;;;;18.21;93.34;101737.63;4941433;28;20486;-85
2023/08/17 04:04:33;;;;;;;4.37;2.27;;;;;;;18.17;93.54;101750.16;4974434;28;20033;-85
2023/08/17 04:06:58;;;;;;;7.50;2.20;;;;;;;18.15;94.12;101747.66;4974998;28;20042;-85
2023/08/17 04:09:23;;;;;;;4.67;2.13;;;;;;;18.14;93.83;101756.16;4957821;28;20089;-85
2023/08/17 04:11:49;;;;;;;7.77;2.40;;;;;;;18.10;94.53;101757.72;4957380;28;20045;-85
2023/08/17 04:14:14;;;;;;;4.13;2.00;;;;;;;18.04;94.45;101749.38;4957323;28;20600;-85
2023/08/17 04:16:40;;;;;;;6.90;2.20;;;;;;;18.01;94.60;101760.00;4957221;28;20113;-85
2023/08/17 04:19:05;;;;;;;6.20;2.20;;;;;;;17.99;94.62;101759.44;4957669;28;20031;-85
2023/08/17 04:21:31;;;;;;;7.90;2.30;;;;;;;17.98;94.76;101757.75;4956798;28;20057;-85
2023/08/17 04:23:56;;;;;;;5.13;1.90;;;;;;;17.96;94.74;101758.00;4957011;28;20160;-85
2023/08/17 04:26:21;;;;;;;4.37;1.90;;;;;;;17.97;94.95;101759.69;4957216;28;20031;-85
2023/08/17 04:28:47;;;;;;;4.50;2.30;;;;;;;17.95;95.37;101767.34;4974285;28;20031;-85
2023/08/17 04:31:12;;;;;;;6.73;2.73;;;;;;;17.96;95.16;101765.41;4940853;28;20380;-85
2023/08/17 04:33:40;;;;;;;6.55;2.10;;;;;;;17.95;95.11;101770.06;4944402;28;20085;-85
2023/08/17 04:36:05;;;;;;;6.40;2.20;;;;;;;17.92;95.44;101764.22;4960767;28;20042;-85
2023/08/17 04:38:33;;;;;;;10.07;2.40;;;;;;;17.86;95.44;101761.34;4960870;28;20026;-85
2023/08/17 04:40:58;;;;;;;4.90;2.40;;;;;;;17.83;96.10;101772.81;4978461;28;20030;-85
2023/08/17 04:43:24;;;;;;;4.80;2.33;;;;;;;17.86;95.78;101771.47;4977983;28;20038;-85
2023/08/17 04:45:49;;;;;;;6.77;2.40;;;;;;;17.82;95.89;101768.41;4977719;28;20035;-84
2023/08/17 04:48:15;;;;;;;5.13;2.33;;;;;;;17.81;95.56;101765.88;4977625;28;20043;-85
2023/08/17 04:50:40;;;;;;;5.65;2.33;;;;;;;17.78;95.17;101766.38;4977340;28;20031;-85
2023/08/17 04:53:05;;;;;;;6.07;2.30;;;;;;;17.75;95.56;101759.44;4960974;28;20130;-85
2023/08/17 04:55:34;;;;;;;5.57;2.17;;;;;;;17.75;95.64;101761.38;4977466;28;20039;-85
2023/08/17 04:58:00;;;;;;;5.32;2.15;;;;;;;17.81;95.52;101761.22;4960106;28;20047;-85
2023/08/17 05:00:27;;;;;;;4.50;2.30;;;;;;;17.80;95.68;101761.47;4945118;28;20371;-84
2023/08/17 05:02:54;;;;;;;4.45;2.20;;;;;;;17.82;95.50;101753.81;4960703;28;20031;-85
2023/08/17 05:05:20;;;;;;;3.35;1.98;;;;;;;17.84;95.41;101760.75;4960502;28;20093;-84
2023/08/17 05:07:45;;;;;;;5.13;2.13;;;;;;;17.86;94.93;101763.25;4944248;28;20026;-85
2023/08/17 05:10:11;;;;;;;6.67;2.40;;;;;;;17.87;94.43;101756.69;4943921;28;20039;-84
2023/08/17 05:12:36;;;;;;;5.53;2.13;;;;;;;17.89;94.41;101760.00;4977470;28;20066;-85
2023/08/17 05:15:01;;;;;;;6.17;2.10;;;;;;;17.94;94.27;101764.81;4960173;28;20031;-85
2023/08/17 05:17:27;;;;;;;3.07;1.73;;;;;;;17.94;94.01;101760.16;4977117;28;20030;-85
2023/08/17 05:19:52;;;;;;;4.53;1.80;;;;;;;17.99;94.29;101762.19;4977115;28;20050;-85
2023/08/17 05:22:18;;;;;;;4.80;2.08;;;;;;;17.98;93.89;101758.59;4928564;28;20046;-85
2023/08/17 05:24:43;;;;;;;7.30;2.07;;;;;;;18.01;93.68;101765.50;4960142;28;20526;-84
2023/08/17 05:27:08;;;;;;;4.83;2.20;;;;;;;18.03;93.87;101758.69;4960176;28;20459;-83
2023/08/17 05:29:34;;;;;;;3.53;2.10;;;;;;;18.12;93.95;101755.56;4959522;28;20038;-85
2023/08/17 05:31:59;;;;;;;5.23;2.47;;;;;;;18.19;93.53;101750.78;4943549;28;20046;-86
2023/08/17 05:34:25;;;;;;;6.90;2.45;;;;;;;18.26;92.52;101756.13;4959669;28;20173;-85
2023/08/17 05:36:50;;;;;;;6.63;2.23;;;;;;;18.34;91.93;101755.72;4959574;28;20038;-85
2023/08/17 05:39:16;;;;;;;3.77;1.97;;;;;;;18.46;91.50;101752.94;4943493;28;20041;-85
2023/08/17 05:41:41;;;;;;;2.60;2.00;;;;;;;18.55;91.10;101759.69;4976870;28;20130;-85
2023/08/17 05:44:06;;;;;;;4.03;2.40;;;;;;;18.59;90.69;101766.38;4943185;28;20097;-84
2023/08/17 05:46:33;;;;;;;5.93;2.37;;;;;;;18.65;90.59;101761.81;4959638;28;20042;-83
2023/08/17 05:48:59;;;;;;;6.25;1.92;;;;;;;18.74;90.30;101768.53;4959431;28;20027;-86
2023/08/17 05:51:24;;;;;;;5.23;2.00;;;;;;;18.71;89.75;101758.06;4959386;28;20093;-86
2023/08/17 05:53:50;;;;;;;6.15;2.38;;;;;;;18.75;89.96;101770.22;4959349;28;20031;-86
2023/08/17 05:56:15;;;;;;;5.60;2.30;;;;;;;18.74;89.79;101765.81;4942974;28;20105;-84
2023/08/17 05:58:41;;;;;;;5.83;2.37;;;;;;;18.85;89.62;101764.91;4943194;28;20113;-85
2023/08/17 06:01:08;;;;;;;4.20;2.20;;;;;;;18.97;89.00;101762.09;4958877;28;20037;-87
2023/08/17 06:03:37;;;;;;;4.80;2.27;;;;;;;19.10;88.32;101766.41;4959217;28;20027;-85
2023/08/17 06:06:03;;;;;;;9.25;2.53;;;;;;;19.28;88.22;101776.31;4976381;28;20030;-88
2023/08/17 06:08:32;;;;;;;5.05;2.30;;;;;;;19.38;87.18;101775.66;4959382;28;20043;-87
2023/08/17 06:10:57;;;;;;;4.72;2.20;;;;;;;19.42;87.51;101771.31;4975748;28;20089;-87
2023/08/17 06:13:23;;;;;;;4.03;2.03;;;;;;;19.38;87.72;101779.22;4959051;28;20035;-87
2023/08/17 06:15:48;;;;;;;5.13;2.40;;;;;;;19.44;88.15;101789.25;4968545;28;20038;-87
2023/08/17 06:18:14;;;;;;;12.27;3.08;;;;;;;19.44;87.23;101785.66;4956081;28;20038;-87
2023/08/17 06:20:39;;;;;;;8.17;2.80;;;;;;;19.46;87.00;101784.31;4958394;28;20035;-87
2023/08/17 06:23:08;;;;;;;7.17;2.87;;;;;;;19.46;86.93;101776.06;4958728;28;20029;-87
2023/08/17 06:25:34;;;;;;;5.03;2.67;;;;;;;19.41;86.92;101778.75;4958642;28;20045;-87
2023/08/17 06:28:00;;;;;;;3.92;2.35;;;;;;;19.34;88.08;101783.59;4958617;28;20487;-87
2023/08/17 06:30:25;;;;;;;4.72;2.55;;;;;;;19.30;87.79;101779.69;4975774;28;20532;-87
2023/08/17 06:32:51;;;;;;;6.10;2.53;;;;;;;19.28;88.10;101779.94;4958880;28;20042;-87
2023/08/17 06:35:17;;;;;;;7.63;2.60;;;;;;;19.22;87.72;101775.44;4958765;28;20375;-87
2023/08/17 06:37:42;;;;;;;5.55;2.28;;;;;;;19.31;87.93;101786.00;4958573;28;20486;-86
2023/08/17 06:40:11;;;;;;;5.87;2.53;;;;;;;19.36;87.97;101786.09;4942588;28;20038;-86
2023/08/17 06:42:36;;;;;;;6.20;3.17;;;;;;;19.45;88.28;101801.91;4958721;28;20486;-87
2023/08/17 06:45:03;;;;;;;6.93;2.93;;;;;;;19.62;86.75;101788.13;4942112;28;20035;-87
2023/08/17 06:47:28;;;;;;;4.75;2.72;;;;;;;19.87;85.88;101786.00;4958233;28;20034;-87
2023/08/17 06:49:55;;;;;;;5.10;2.87;;;;;;;20.15;84.95;101784.97;4941805;28;20439;-87
2023/08/17 06:52:20;;;;;;;5.90;2.45;;;;;;;20.39;82.61;101785.53;4975525;28;20058;-88
2023/08/17 06:54:45;;;;;;;5.47;2.57;;;;;;;20.57;81.65;101787.09;4942161;28;20471;-88
2023/08/17 06:57:14;;;;;;;7.03;2.80;;;;;;;20.63;81.66;101785.25;4957485;28;20034;-87
2023/08/17 06:59:40;;;;;;;3.95;2.55;;;;;;;20.79;80.63;101784.31;4942194;28;20042;-87
2023/08/17 07:02:05;;;;;;;6.93;3.15;;;;;;;20.83;80.52;101790.13;4975419;28;20097;-87
2023/08/17 07:04:31;;;;;;;9.17;2.50;;;;;;;20.85;80.32;101782.44;4958206;28;20031;-88
2023/08/17 07:06:57;;;;;;;6.63;2.97;;;;;;;20.87;79.39;101788.53;4958167;28;20035;-87
2023/08/17 07:09:22;;;;;;;6.47;2.47;;;;;;;20.89;79.11;101782.75;4941919;28;20129;-87
2023/08/17 07:11:47;;;;;;;6.07;2.60;;;;;;;20.96;79.15;101780.59;4942144;28;20113;-87
2023/08/17 07:14:13;;;;;;;4.60;2.83;;;;;;;20.88;79.30;101783.84;4958410;28;20093;-87
2023/08/17 07:16:38;;;;;;;6.85;3.00;;;;;;;20.90;79.18;101784.41;4941907;28;20035;-88
2023/08/17 07:19:04;;;;;;;8.30;2.90;;;;;;;20.89;79.00;101789.09;4957865;28;20030;-87
2023/08/17 07:21:29;;;;;;;7.70;2.90;;;;;;;20.94;78.57;101791.06;4957251;28;20038;-87
2023/08/17 07:23:55;;;;;;;5.93;3.00;;;;;;;20.99;78.92;101782.81;4957708;28;20034;-87
2023/08/17 07:26:22;;;;;;;7.53;2.65;;;;;;;21.18;79.33;101784.09;4957863;28;20115;-87
2023/08/17 07:28:49;;;;;;;5.68;2.80;;;;;;;21.28;77.97;101790.78;4975144;28;20086;-87
2023/08/17 07:31:15;;;;;;;4.03;2.60;;;;;;;21.31;77.07;101781.97;4957582;28;20054;-87
2023/08/17 07:33:40;;;;;;;8.53;3.20;;;;;;;21.29;77.78;101782.25;4957651;28;20038;-86
2023/08/17 07:36:10;;;;;;;10.23;3.10;;;;;;;21.45;77.28;101787.84;4971412;28;20031;-86
2023/08/17 07:38:35;;;;;;;4.13;2.50;;;;;;;21.66;76.69;101788.88;4948344;28;20498;-87
2023/08/17 07:41:03;;;;;;;5.70;2.90;;;;;;;21.86;75.47;101793.66;4967365;28;20022;-87
2023/08/17 07:43:28;;;;;;;8.40;2.95;;;;;;;21.90;74.60;101787.31;4941713;28;20066;-87
2023/08/17 07:45:57;;;;;;;7.57;2.73;;;;;;;21.96;73.96;101788.19;4974615;28;20058;-87
2023/08/17 07:48:25;;;;;;;5.32;2.78;;;;;;;22.03;73.97;101796.22;4957403;28;20058;-87
2023/08/17 07:50:51;;;;;;;6.63;3.00;;;;;;;22.17;73.32;101791.03;4974025;28;20049;-86
2023/08/17 07:53:18;;;;;;;4.97;2.88;;;;;;;22.37;71.96;101793.88;4974692;28;20106;-87
2023/08/17 07:55:43;;;;;;;7.15;3.05;;;;;;;22.69;70.92;101792.00;4957383;28;20042;-84
2023/08/17 07:58:09;;;;;;;9.30;2.90;;;;;;;22.97;69.50;101806.41;4925741;28;20039;-83
2023/08/17 08:00:34;;;;;;;8.40;2.93;;;;;;;23.08;69.16;101802.56;4958157;28;20034;-85
2023/08/17 08:03:00;;;;;;;6.90;2.65;;;;;;;23.01;69.08;101804.78;4957276;28;20042;-86
2023/08/17 08:05:26;;;;;;;8.23;2.90;;;;;;;22.93;69.11;101797.84;4957266;28;20488;-85
2023/08/17 08:07:51;;;;;;;7.53;2.88;;;;;;;22.99;69.47;101798.66;4927457;28;20395;-86
2023/08/17 08:10:17;;;;;;;7.90;2.70;;;;;;;23.04;69.32;101788.44;4978322;28;20051;-85
2023/08/17 08:12:42;;;;;;;8.73;2.77;;;;;;;23.13;67.70;101794.28;4978081;28;20062;-86
2023/08/17 08:15:08;;;;;;;6.97;2.60;;;;;;;23.24;67.89;101789.56;4945066;28;20379;-85
2023/08/17 08:17:36;;;;;;;6.30;2.77;;;;;;;23.39;67.42;101788.72;4945030;28;20034;-85
2023/08/17 08:20:02;;;;;;;6.40;2.80;;;;;;;23.41;67.02;101789.25;4944571;28;20031;-86
2023/08/17 08:22:28;;;;;;;7.50;2.42;;;;;;;23.34;66.60;101784.03;4961045;28;20037;-86
2023/08/17 08:24:53;;;;;;;12.03;3.10;;;;;;;23.38;66.73;101787.06;4945087;28;20046;-86
2023/08/17 08:27:19;;;;;;;5.70;2.80;;;;;;;23.43;66.05;101789.81;4978336;28;20031;-86
2023/08/17 08:29:45;;;;;;;7.95;2.80;;;;;;;23.40;66.71;101793.13;4929377;28;20030;-86
2023/08/17 08:32:10;;;;;;;9.47;2.90;;;;;;;23.26;66.62;101798.41;4961399;28;20042;-85
2023/08/17 08:34:38;;;;;;;8.17;2.80;;;;;;;23.17;67.34;101789.03;4977875;28;20490;-86
2023/08/17 08:37:03;;;;;;;7.35;2.83;;;;;;;23.14;67.13;101795.13;4960699;28;20027;-85
2023/08/17 08:39:29;;;;;;;6.00;2.77;;;;;;;23.06;67.16;101800.06;4960460;28;20086;-85
2023/08/17 08:41:55;;;;;;;6.03;2.70;;;;;;;22.95;68.12;101793.69;4960583;28;20077;-85
2023/08/17 08:44:20;;;;;;;7.00;2.80;;;;;;;23.04;67.64;101804.22;4960111;28;20078;-86
2023/08/17 08:46:46;;;;;;;7.82;2.80;;;;;;;22.96;67.88;101791.75;4977873;28;20061;-85
2023/08/17 08:49:12;;;;;;;9.20;2.70;;;;;;;22.88;67.77;101787.63;4960622;28;20595;-86
2023/08/17 08:51:52;;;;;;;7.45;3.10;;;;;;;22.77;68.65;101791.47;4959926;28;20031;-86
2023/08/17 08:54:22;;;;;;;10.30;2.80;;;;;;;22.55;68.85;101788.94;4960485;28;20468;-85
2023/08/17 08:56:54;;;;;;;6.28;2.58;;;;;;;22.42;69.56;101784.75;4977744;28;20525;-86
2023/08/17 08:59:21;;;;;;;5.77;2.90;;;;;;;22.32;70.19;101795.78;4960908;28;20468;-85
2023/08/17 09:01:47;;;;;;;6.88;3.08;;;;;;;22.29;70.03;101788.03;4944034;28;20121;-85
2023/08/17 09:04:13;;;;;;;8.88;3.30;;;;;;;22.34;70.19;101777.03;4960403;28;20472;-85
2023/08/17 09:06:42;;;;;;;8.30;3.10;;;;;;;22.30;70.69;101773.94;4977621;28;20035;-85
2023/08/17 09:09:07;;;;;;;8.75;3.08;;;;;;;22.16;71.22;101781.91;4977525;28;20039;-85
2023/08/17 09:11:33;;;;;;;6.40;3.30;;;;;;;22.25;71.69;101768.41;4959831;28;20034;-85
2023/08/17 09:13:58;;;;;;;8.60;3.30;;;;;;;22.33;72.01;101770.66;4944126;28;20031;-85
2023/08/17 09:16:24;;;;;;;7.38;3.17;;;;;;;22.40;70.68;101773.97;4977698;28;20089;-85
2023/08/17 09:18:49;;;;;;;7.63;3.13;;;;;;;22.37;70.83;101784.78;4977094;28;20482;-85
2023/08/17 09:21:24;;;;;;;7.70;3.70;;;;;;;22.43;71.08;101781.72;4976905;28;20050;-85
2023/08/17 09:23:53;;;;;;;9.95;4.10;;;;;;;22.23;71.13;101784.41;4944202;28;20043;-85
2023/08/17 09:26:22;;;;;;;10.65;3.72;;;;;;;22.17;71.39;101786.31;4959797;28;20030;-85
2023/08/17 09:28:48;;;;;;;11.18;3.83;;;;;;;22.12;72.38;101783.53;4944144;28;20035;-85
2023/08/17 09:31:13;;;;;;;10.20;4.20;;;;;;;22.00;72.50;101778.25;4959675;28;20061;-85
2023/08/17 09:33:41;;;;;;;11.07;3.67;;;;;;;22.00;72.41;101780.19;4943600;28;20038;-85
2023/08/17 09:36:11;;;;;;;7.72;3.97;;;;;;;21.93;73.03;101777.66;4943672;28;20554;-85
2023/08/17 09:38:38;;;;;;;8.02;3.88;;;;;;;22.02;72.64;101772.47;4977500;28;20058;-85
2023/08/17 09:41:06;;;;;;;14.15;4.85;;;;;;;22.08;72.37;101777.72;4943925;28;20085;-85
2023/08/17 09:43:33;;;;;;;11.35;4.20;;;;;;;22.16;71.62;101776.38;4959592;28;20038;-85
2023/08/17 09:46:01;;;;;;;11.03;4.07;;;;;;;22.46;71.02;101779.53;4959893;28;20039;-85
2023/08/17 09:48:27;;;;;;;7.45;4.10;;;;;;;22.65;70.38;101779.81;4959384;28;20070;-85
2023/08/17 09:50:56;;;;;;;10.55;4.38;;;;;;;22.66;69.48;101773.19;4958968;28;20070;-85
2023/08/17 09:53:22;;;;;;;13.37;4.63;;;;;;;22.54;69.50;101776.22;4959834;28;20033;-85
2023/08/17 09:55:47;;;;;;;11.75;4.53;;;;;;;22.50;69.79;101770.41;4976991;28;20031;-84
2023/08/17 09:58:16;;;;;;;12.80;4.80;;;;;;;22.43;69.78;101776.19;4976714;28;20097;-84
2023/08/17 10:00:47;;;;;;;8.93;4.88;;;;;;;22.45;70.68;101775.94;4976844;28;20027;-85
2023/08/17 10:03:17;;;;;;;12.68;5.07;;;;;;;22.50;70.23;101773.19;4976625;28;20125;-84
2023/08/17 10:05:44;;;;;;;11.73;5.07;;;;;;;22.41;70.25;101767.34;4942646;28;20035;-85
2023/08/17 10:08:11;;;;;;;14.87;5.27;;;;;;;22.55;70.60;101761.31;4976489;28;20034;-85
2023/08/17 10:10:42;;;;;;;11.57;5.45;;;;;;;22.62;70.20;101761.88;4976199;28;20031;-85
2023/08/17 10:13:39;;;;;;;12.40;5.55;;;;;;;22.71;69.74;101756.63;4976552;28;20031;-85
2023/08/17 10:16:19;;;;;;;10.48;5.20;;;;;;;22.72;69.57;101761.03;4976597;28;20075;-85
2023/08/17 10:18:58;;;;;;;9.50;5.20;;;;;;;22.73;70.05;101746.09;4976411;28;20085;-85
2023/08/17 10:21:26;;;;;;;10.83;5.53;;;;;;;22.80;69.44;101754.97;4975616;28;20391;-85
2023/08/17 10:23:53;;;;;;;12.00;5.70;;;;;;;22.88;68.80;101759.09;4958755;28;20084;-85
2023/08/17 10:26:19;;;;;;;12.13;5.75;;;;;;;22.85;69.19;101745.81;4975913;28;20026;-84
2023/08/17 10:28:45;;;;;;;13.10;4.90;;;;;;;22.78;69.41;101749.69;4926885;28;20046;-85
2023/08/17 10:31:12;;;;;;;12.13;5.20;;;;;;;22.75;70.27;101754.94;4975736;28;20067;-85
2023/08/17 10:33:41;;;;;;;13.60;5.50;;;;;;;22.63;70.80;101743.31;4976178;28;20045;-84
2023/08/17 10:36:07;;;;;;;11.93;5.60;;;;;;;22.59;70.31;101743.06;4943093;28;20031;-85
2023/08/17 10:38:34;;;;;;;15.63;5.47;;;;;;;22.66;70.75;101743.63;4943201;28;20057;-85
2023/08/17 10:41:14;;;;;;;10.20;5.50;;;;;;;22.81;70.25;101751.09;4942786;28;20466;-85
2023/08/17 10:43:59;;;;;;;13.98;5.75;;;;;;;22.81;70.75;101753.88;4975408;28;20035;-85
2023/08/17 10:46:35;;;;;;;11.95;5.53;;;;;;;22.83;70.81;101754.41;4942485;28;20035;-85
2023/08/17 10:49:04;;;;;;;12.52;5.35;;;;;;;22.88;70.33;101753.56;4958313;28;20479;-86
2023/08/17 10:51:30;;;;;;;11.43;5.50;;;;;;;22.99;69.57;101746.09;4957412;28;20030;-87
2023/08/17 10:53:59;;;;;;;12.60;5.30;;;;;;;23.23;68.47;101749.97;4958231;28;20125;-86
2023/08/17 10:56:27;;;;;;;9.93;5.43;;;;;;;23.23;68.23;101743.63;4957860;28;20035;-87
2023/08/17 10:58:53;;;;;;;14.13;5.40;;;;;;;23.19;68.58;101746.09;4957601;28;20031;-87
2023/08/17 11:01:36;;;;;;;10.15;5.25;;;;;;;23.36;68.57;101737.50;4942155;28;20034;-87
2023/08/17 11:04:18;;;;;;;10.13;5.35;;;;;;;23.45;68.36;101737.75;4975336;28;20027;-86
2023/08/17 11:06:47;;;;;;;12.57;5.35;;;;;;;23.61;67.82;101738.53;4957907;28;20030;-86
2023/08/17 11:09:16;;;;;;;12.27;5.43;;;;;;;23.87;68.04;101738.47;4942501;28;20039;-87
2023/08/17 11:11:41;;;;;;;15.57;8.00;;;;;;;24.08;65.56;101741.94;4942268;28;20037;-87
2023/08/17 11:14:06;;;;;;;14.10;6.68;;;;;;;24.27;65.37;101742.97;4942392;28;20110;-86
2023/08/17 11:16:32;;;;;;;12.33;6.00;;;;;;;24.39;64.06;101744.56;4941044;28;20118;-87
2023/08/17 11:18:59;;;;;;;14.40;5.80;;;;;;;24.26;65.30;101748.81;4975573;28;20035;-87
2023/08/17 11:21:25;;;;;;;10.52;6.38;;;;;;;23.99;65.30;101741.72;4957294;28;20426;-87